Map

Track Data

SID SEASON NUMBER BASIN SUBBASIN NAME ISO_TIME NATURE LAT LON WMO_WIND WMO_PRES WMO_AGENCY TRACK_TYPE DIST2LAND LANDFALL IFLAG USA_AGENCY USA_ATCF_ID USA_LAT USA_LON USA_RECORD USA_STATUS USA_WIND USA_PRES USA_SSHS USA_R34_NE USA_R34_SE USA_R34_SW USA_R34_NW USA_R50_NE USA_R50_SE USA_R50_SW USA_R50_NW USA_R64_NE USA_R64_SE USA_R64_SW USA_R64_NW USA_POCI USA_ROCI USA_RMW USA_EYE TOKYO_LAT TOKYO_LON TOKYO_GRADE TOKYO_WIND TOKYO_PRES TOKYO_R50_DIR TOKYO_R50_LONG TOKYO_R50_SHORT TOKYO_R30_DIR TOKYO_R30_LONG TOKYO_R30_SHORT TOKYO_LAND CMA_LAT CMA_LON CMA_CAT CMA_WIND CMA_PRES HKO_LAT HKO_LON HKO_CAT HKO_WIND HKO_PRES NEWDELHI_LAT NEWDELHI_LON NEWDELHI_GRADE NEWDELHI_WIND NEWDELHI_PRES NEWDELHI_CI NEWDELHI_DP NEWDELHI_POCI REUNION_LAT REUNION_LON REUNION_TYPE REUNION_WIND REUNION_PRES REUNION_TNUM REUNION_CI REUNION_RMW REUNION_R34_NE REUNION_R34_SE REUNION_R34_SW REUNION_R34_NW REUNION_R50_NE REUNION_R50_SE REUNION_R50_SW REUNION_R50_NW REUNION_R64_NE REUNION_R64_SE REUNION_R64_SW REUNION_R64_NW BOM_LAT BOM_LON BOM_TYPE BOM_WIND BOM_PRES BOM_TNUM BOM_CI BOM_RMW BOM_R34_NE BOM_R34_SE BOM_R34_SW BOM_R34_NW BOM_R50_NE BOM_R50_SE BOM_R50_SW BOM_R50_NW BOM_R64_NE BOM_R64_SE BOM_R64_SW BOM_R64_NW BOM_ROCI BOM_POCI BOM_EYE BOM_POS_METHOD BOM_PRES_METHOD NADI_LAT NADI_LON NADI_CAT NADI_WIND NADI_PRES WELLINGTON_LAT WELLINGTON_LON WELLINGTON_WIND WELLINGTON_PRES DS824_LAT DS824_LON DS824_STAGE DS824_WIND DS824_PRES TD9636_LAT TD9636_LON TD9636_STAGE TD9636_WIND TD9636_PRES TD9635_LAT TD9635_LON TD9635_WIND TD9635_PRES TD9635_ROCI NEUMANN_LAT NEUMANN_LON NEUMANN_CLASS NEUMANN_WIND NEUMANN_PRES MLC_LAT MLC_LON MLC_CLASS MLC_WIND MLC_PRES USA_GUST BOM_GUST BOM_GUST_PER REUNION_GUST REUNION_GUST_PER USA_SEAHGT USA_SEARAD_NE USA_SEARAD_SE USA_SEARAD_SW USA_SEARAD_NW STORM_SPEED STORM_DIR
1922011S16061 1922 1 SI MM NOT_NAMED 1922-01-11 00:00:00 TS -16.2000 60.7000 main 539 530 _________O____ -1 -16.2000 60.7000 TC 25 4 146
1922011S16061 1922 1 SI MM NOT_NAMED 1922-01-11 03:00:00 TS -16.3500 60.8100 main 527 525 _________P____ -1 -16.3500 60.8100 TC 25 4 147
1922011S16061 1922 1 SI MM NOT_NAMED 1922-01-11 06:00:00 TS -16.5000 60.9000 main 525 517 _________O____ -1 -16.5000 60.9000 TC 25 3 155
1922011S16061 1922 1 SI MM NOT_NAMED 1922-01-11 09:00:00 TS -16.6500 60.9575 main 524 507 _________P____ -1 -16.6500 60.9575 TC 25 3 163
1922011S16061 1922 1 SI MM NOT_NAMED 1922-01-11 12:00:00 TS -16.8000 61.0000 main 507 499 _________O____ -1 -16.8000 61.0000 TC 25 3 165
1922011S16061 1922 1 SI MM NOT_NAMED 1922-01-11 15:00:00 TS -16.9575 61.0500 main 498 490 _________P____ -1 -16.9575 61.0500 TC 25 3 163
1922011S16061 1922 1 SI MM NOT_NAMED 1922-01-11 18:00:00 TS -17.1000 61.1000 main 490 483 _________O____ -1 -17.1000 61.1000 TC 25 3 160
1922011S16061 1922 1 SI MM NOT_NAMED 1922-01-11 21:00:00 TS -17.2075 61.1425 main 483 483 _________P____ -1 -17.2075 61.1425 TC 25 2 153
1922011S16061 1922 1 SI MM NOT_NAMED 1922-01-12 00:00:00 TS -17.3000 61.2000 main 483 476 _________O____ -1 -17.3000 61.2000 TC 25 2 143
1922011S16061 1922 1 SI MM NOT_NAMED 1922-01-12 03:00:00 TS -17.4000 61.2925 main 484 477 _________P____ -1 -17.4000 61.2925 TC 25 3 136
1922011S16061 1922 1 SI MM NOT_NAMED 1922-01-12 06:00:00 TS -17.5000 61.4000 main 486 486 _________O____ -1 -17.5000 61.4000 TC 25 3 133
1922011S16061 1922 1 SI MM NOT_NAMED 1922-01-12 09:00:00 TS -17.6000 61.5150 main 487 487 _________P____ -1 -17.6000 61.5150 TC 25 3 136
1922011S16061 1922 1 SI MM NOT_NAMED 1922-01-12 12:00:00 TS -17.7000 61.6000 main 490 484 _________O____ -1 -17.7000 61.6000 TC 25 2 155
1922011S16061 1922 1 SI MM NOT_NAMED 1922-01-12 15:00:00 TS -17.8000 61.6075 main 484 478 _________P____ -1 -17.8000 61.6075 TC 25 2 172
1922011S16061 1922 1 SI MM NOT_NAMED 1922-01-12 18:00:00 TS -17.9000 61.6000 main 478 472 _________O____ -1 -17.9000 61.6000 TC 25 2 172
1922011S16061 1922 1 SI MM NOT_NAMED 1922-01-12 21:00:00 TS -18.0075 61.6350 main 472 472 _________P____ -1 -18.0075 61.6350 TC 25 2 153
1922011S16061 1922 1 SI MM NOT_NAMED 1922-01-13 00:00:00 TS -18.1000 61.7000 main 476 476 _________O____ -1 -18.1000 61.7000 TC 25 2 134
1922011S16061 1922 1 SI MM NOT_NAMED 1922-01-13 03:00:00 TS -18.1500 61.7925 main 485 480 _________P____ -1 -18.1500 61.7925 TC 25 2 118
1922011S16061 1922 1 SI MM NOT_NAMED 1922-01-13 06:00:00 TS -18.2000 61.9000 main 489 489 _________O____ -1 -18.2000 61.9000 TC 25 2 125
1922011S16061 1922 1 SI MM NOT_NAMED 1922-01-13 09:00:00 TS -18.2925 62.0075 main 494 494 _________P____ -1 -18.2925 62.0075 TC 25 3 136
1922011S16061 1922 1 SI MM NOT_NAMED 1922-01-13 12:00:00 TS -18.4000 62.1000 main 498 493 _________O____ -1 -18.4000 62.1000 TC 25 2 147
1922011S16061 1922 1 SI MM NOT_NAMED 1922-01-13 15:00:00 TS -18.5000 62.1500 main 503 498 _________P____ -1 -18.5000 62.1500 TC 25 2 153
1922011S16061 1922 1 SI MM NOT_NAMED 1922-01-13 18:00:00 TS -18.6000 62.2000 main 498 494 _________O____ -1 -18.6000 62.2000 TC 25 2 146
1922011S16061 1922 1 SI MM NOT_NAMED 1922-01-13 21:00:00 TS -18.6850 62.2851 main 504 504 _________P____ -1 -18.6850 62.2851 TC 25 3 136
1922011S16061 1922 1 SI MM NOT_NAMED 1922-01-14 00:00:00 TS -18.8000 62.4000 main 510 506 _________O____ -1 -18.8000 62.4000 TC 25 4 142
1922011S16061 1922 1 SI MM NOT_NAMED 1922-01-14 03:00:00 TS -18.9925 62.5425 main 513 513 _________P____ -1 -18.9925 62.5425 TC 25 5 145
1922011S16061 1922 1 SI MM NOT_NAMED 1922-01-14 06:00:00 TS -19.2000 62.7000 main 527 524 _________O____ -1 -19.2000 62.7000 TC 25 5 141
1922011S16061 1922 1 SI MM NOT_NAMED 1922-01-14 09:00:00 TS -19.3725 62.8650 main 542 540 _________P____ -1 -19.3725 62.8650 TC 25 4 137
1922011S16061 1922 1 SI MM NOT_NAMED 1922-01-14 12:00:00 TS -19.5000 63.0000 main 550 550 _________O____ -1 -19.5000 63.0000 TC 25 3 135
1922011S16061 1922 1 SI MM NOT_NAMED 1922-01-14 15:00:00 TS -19.5650 63.0650 main 559 559 _________P____ -1 -19.5650 63.0650 TC 25 1 137
1922011S16061 1922 1 SI MM NOT_NAMED 1922-01-14 18:00:00 TS -19.6000 63.1000 main 559 559 _________O____ -1 -19.6000 63.1000 TC 25 1 136
1922011S16061 1922 1 SI MM NOT_NAMED 1922-01-14 21:00:00 TS -19.6500 63.1500 main 569 568 _________P____ -1 -19.6500 63.1500 TC 25 1 137
1922011S16061 1922 1 SI MM NOT_NAMED 1922-01-15 00:00:00 TS -19.7000 63.2000 main 568 568 _________O____ -1 -19.7000 63.2000 TC 25 1 137
1922011S16061 1922 1 SI MM NOT_NAMED 1922-01-15 03:00:00 TS -19.7500 63.2500 main 578 577 _________P____ -1 -19.7500 63.2500 TC 25 1 137
1922011S16061 1922 1 SI MM NOT_NAMED 1922-01-15 06:00:00 TS -19.8000 63.3000 main 577 577 _________O____ -1 -19.8000 63.3000 TC 25 1 137
1922011S16061 1922 1 SI MM NOT_NAMED 1922-01-15 09:00:00 TS -19.8500 63.3500 main 587 586 _________P____ -1 -19.8500 63.3500 TC 25 1 137
1922011S16061 1922 1 SI MM NOT_NAMED 1922-01-15 12:00:00 TS -19.9000 63.4000 main 586 586 _________O____ -1 -19.9000 63.4000 TC 25 1 135
1922011S16061 1922 1 SI MM NOT_NAMED 1922-01-15 15:00:00 TS -19.9425 63.4500 main 596 595 _________P____ -1 -19.9425 63.4500 TC 25 1 137
1922011S16061 1922 1 SI MM NOT_NAMED 1922-01-15 18:00:00 TS -20.0000 63.5000 main 595 595 _________O____ -1 -20.0000 63.5000 TC 25 2 150
1922011S16061 1922 1 SI MM NOT_NAMED 1922-01-15 21:00:00 TS -20.0925 63.5425 main 595 595 _________P____ -1 -20.0925 63.5425 TC 25 2 153
1922011S16061 1922 1 SI MM NOT_NAMED 1922-01-16 00:00:00 TS -20.2000 63.6000 main 605 604 _________O____ -1 -20.2000 63.6000 TC 25 3 146
1922011S16061 1922 1 SI MM NOT_NAMED 1922-01-16 03:00:00 TS -20.3075 63.6925 main 615 615 _________P____ -1 -20.3075 63.6925 TC 25 3 137
1922011S16061 1922 1 SI MM NOT_NAMED 1922-01-16 06:00:00 TS -20.4000 63.8000 main 625 625 _________O____ -1 -20.4000 63.8000 TC 25 2 125
1922011S16061 1922 1 SI MM NOT_NAMED 1922-01-16 09:00:00 TS -20.4500 63.9075 main 636 636 _________P____ -1 -20.4500 63.9075 TC 25 2 119
1922011S16061 1922 1 SI MM NOT_NAMED 1922-01-16 12:00:00 TS -20.5000 64.0000 main 646 646 _________O____ -1 -20.5000 64.0000 TC 25 2 137
1922011S16061 1922 1 SI MM NOT_NAMED 1922-01-16 15:00:00 TS -20.5925 64.0500 main 657 657 _________P____ -1 -20.5925 64.0500 TC 25 2 153
1922011S16061 1922 1 SI MM NOT_NAMED 1922-01-16 18:00:00 TS -20.7000 64.1000 main 657 657 _________O____ -1 -20.7000 64.1000 TC 25 3 146
1922011S16061 1922 1 SI MM NOT_NAMED 1922-01-16 21:00:00 TS -20.8075 64.2000 main 668 668 _________P____ -1 -20.8075 64.2000 TC 25 3 137
1922011S16061 1922 1 SI MM NOT_NAMED 1922-01-17 00:00:00 TS -20.9000 64.3000 main 679 679 _________O____ -1 -20.9000 64.3000 TC 25 2 135
1922011S16061 1922 1 SI MM NOT_NAMED 1922-01-17 03:00:00 TS -20.9500 64.3500 main 690 690 _________P____ -1 -20.9500 64.3500 TC 25 1 137
1922011S16061 1922 1 SI MM NOT_NAMED 1922-01-17 06:00:00 TS -21.0000 64.4000 main 691 691 _________O____ -1 -21.0000 64.4000 TC 25 2 137
1922011S16061 1922 1 SI MM NOT_NAMED 1922-01-17 09:00:00 TS -21.1000 64.5000 main 702 702 _________P____ -1 -21.1000 64.5000 TC 25 3 137
1922011S16061 1922 1 SI MM NOT_NAMED 1922-01-17 12:00:00 TS -21.2000 64.6000 main 714 714 _________O____ -1 -21.2000 64.6000 TC 25 2 137
1922011S16061 1922 1 SI MM NOT_NAMED 1922-01-17 15:00:00 TS -21.2575 64.6575 main 725 725 _________P____ -1 -21.2575 64.6575 TC 25 1 137
1922011S16061 1922 1 SI MM NOT_NAMED 1922-01-17 18:00:00 TS -21.3000 64.7000 main 725 725 _________O____ -1 -21.3000 64.7000 TC 25 1 138
1922011S16061 1922 1 SI MM NOT_NAMED 1922-01-17 21:00:00 TS -21.3500 64.7500 main 735 725 _________P____ -1 -21.3500 64.7500 TC 25 1 137
1922011S16061 1922 1 SI MM NOT_NAMED 1922-01-18 00:00:00 TS -21.4000 64.8000 main 737 737 _________O____ -1 -21.4000 64.8000 TC 25 1 135
1922011S16061 1922 1 SI MM NOT_NAMED 1922-01-18 03:00:00 TS -21.4425 64.8500 main 747 747 _________P____ -1 -21.4425 64.8500 TC 25 1 137
1922011S16061 1922 1 SI MM NOT_NAMED 1922-01-18 06:00:00 TS -21.5000 64.9000 main 749 749 _________O____ -1 -21.5000 64.9000 TC 25 2 148
1922011S16061 1922 1 SI MM NOT_NAMED 1922-01-18 09:00:00 TS -21.6000 64.9500 main 751 751 _________P____ -1 -21.6000 64.9500 TC 25 2 153
1922011S16061 1922 1 SI MM NOT_NAMED 1922-01-18 12:00:00 TS -21.7000 65.0000 main 763 763 _________O____ -1 -21.7000 65.0000 TC 25 2 148
1922011S16061 1922 1 SI MM NOT_NAMED 1922-01-18 15:00:00 TS -21.7500 65.0500 main 773 773 _________P____ -1 -21.7500 65.0500 TC 25 1 137
1922011S16061 1922 1 SI MM NOT_NAMED 1922-01-18 18:00:00 TS -21.8000 65.1000 main 775 775 _________O____ -1 -21.8000 65.1000 TC 25 2 148
1922011S16061 1922 1 SI MM NOT_NAMED 1922-01-18 21:00:00 TS -21.9000 65.1500 main 787 777 _________P____ -1 -21.9000 65.1500 TC 25 2 155
1922011S16061 1922 1 SI MM NOT_NAMED 1922-01-19 00:00:00 TS -22.0000 65.2000 main 790 790 _________O____ -1 -22.0000 65.2000 TC 25 2 150
1922011S16061 1922 1 SI MM NOT_NAMED 1922-01-19 03:00:00 TS -22.0500 65.2500 main 800 800 _________P____ -1 -22.0500 65.2500 TC 25 1 140
1922011S16061 1922 1 SI MM NOT_NAMED 1922-01-19 06:00:00 TS -22.1000 65.3000 main 802 802 _________O____ -1 -22.1000 65.3000 TC 25 2 150
1922011S16061 1922 1 SI MM NOT_NAMED 1922-01-19 09:00:00 TS -22.2000 65.3500 main 815 815 _________P____ -1 -22.2000 65.3500 TC 25 2 155
1922011S16061 1922 1 SI MM NOT_NAMED 1922-01-19 12:00:00 TS -22.3000 65.4000 main 818 818 _________O____ -1 -22.3000 65.4000 TC 25 2 150
1922011S16061 1922 1 SI MM NOT_NAMED 1922-01-19 15:00:00 TS -22.3500 65.4500 main 828 828 _________P____ -1 -22.3500 65.4500 TC 25 1 140
1922011S16061 1922 1 SI MM NOT_NAMED 1922-01-19 18:00:00 TS -22.4000 65.5000 main 830 830 _________O____ -1 -22.4000 65.5000 TC 25 2 148
1922011S16061 1922 1 SI MM NOT_NAMED 1922-01-19 21:00:00 TS -22.4925 65.5500 main 843 843 _________P____ -1 -22.4925 65.5500 TC 25 2 155
1922011S16061 1922 1 SI MM NOT_NAMED 1922-01-20 00:00:00 TS -22.6000 65.6000 main 846 846 _________O____ -1 -22.6000 65.6000 TC 25 2 157
1922011S16061 1922 1 SI MM NOT_NAMED 1922-01-20 03:00:00 TS -22.7075 65.6425 main 850 850 _________P____ -1 -22.7075 65.6425 TC 25 2 155
1922011S16061 1922 1 SI MM NOT_NAMED 1922-01-20 06:00:00 TS -22.8000 65.7000 main 863 863 _________O____ -1 -22.8000 65.7000 TC 25 2 137
1922011S16061 1922 1 SI MM NOT_NAMED 1922-01-20 09:00:00 TS -22.8575 65.8000 main 876 876 _________P____ -1 -22.8575 65.8000 TC 25 2 119
1922011S16061 1922 1 SI MM NOT_NAMED 1922-01-20 12:00:00 TS -22.9000 65.9000 main 886 886 _________O____ -1 -22.9000 65.9000 TC 25 2 120
1922011S16061 1922 1 SI MM NOT_NAMED 1922-01-20 15:00:00 TS -22.9425 65.9575 main 895 895 _________P____ -1 -22.9425 65.9575 TC 25 1 140
1922011S16061 1922 1 SI MM NOT_NAMED 1922-01-20 18:00:00 TS -23.0000 66.0000 main 899 899 _________O____ -1 -23.0000 66.0000 TC 25 2 150
1922011S16061 1922 1 SI MM NOT_NAMED 1922-01-20 21:00:00 TS -23.0925 66.0500 main 912 902 _________P____ -1 -23.0925 66.0500 TC 25 2 155
1922011S16061 1922 1 SI MM NOT_NAMED 1922-01-21 00:00:00 TS -23.2000 66.1000 main 916 916 _________O____ -1 -23.2000 66.1000 TC 25 2 156
1922011S16061 1922 1 SI MM NOT_NAMED 1922-01-21 03:00:00 TS -23.3000 66.1425 main 919 919 _________P____ -1 -23.3000 66.1425 TC 25 2 155
1922011S16061 1922 1 SI MM NOT_NAMED 1922-01-21 06:00:00 TS -23.4000 66.2000 main 933 933 _________O____ -1 -23.4000 66.2000 TC 25 2 145
1922011S16061 1922 1 SI MM NOT_NAMED 1922-01-21 09:00:00 TS -23.5000 66.2925 main 946 946 _________P____ -1 -23.5000 66.2925 TC 25 3 138
1922011S16061 1922 1 SI MM NOT_NAMED 1922-01-21 12:00:00 TS -23.6000 66.4000 main 960 960 _________O____ -1 -23.6000 66.4000 TC 25 3 137
1922011S16061 1922 1 SI MM NOT_NAMED 1922-01-21 15:00:00 TS -23.7075 66.5000 main 973 973 _________P____ -1 -23.7075 66.5000 TC 25 3 138
1922011S16061 1922 1 SI MM NOT_NAMED 1922-01-21 18:00:00 TS -23.8000 66.6000 main 987 987 _________O____ -1 -23.8000 66.6000 TC 25 2 127
1922011S16061 1922 1 SI MM NOT_NAMED 1922-01-21 21:00:00 TS -23.8500 66.7075 main 1000 1000 _________P____ -1 -23.8500 66.7075 TC 25 2 119
1922011S16061 1922 1 SI MM NOT_NAMED 1922-01-22 00:00:00 TS -23.9000 66.8000 main 1010 1010 _________O____ -1 -23.9000 66.8000 TC 25 2 137
1922011S16061 1922 1 SI MM NOT_NAMED 1922-01-22 03:00:00 TS -23.9925 66.8500 main 1023 1023 _________P____ -1 -23.9925 66.8500 TC 25 2 155
1922011S16061 1922 1 SI MM NOT_NAMED 1922-01-22 06:00:00 TS -24.1000 66.9000 main 1027 1027 _________O____ -1 -24.1000 66.9000 TC 25 3 147
1922011S16061 1922 1 SI MM NOT_NAMED 1922-01-22 09:00:00 TS -24.2075 67.0000 main 1041 1041 _________P____ -1 -24.2075 67.0000 TC 25 3 138
1922011S16061 1922 1 SI MM NOT_NAMED 1922-01-22 12:00:00 TS -24.3000 67.1000 main 1054 1054 _________O____ -1 -24.3000 67.1000 TC 25 2 138
1922011S16061 1922 1 SI MM NOT_NAMED 1922-01-22 15:00:00 TS -24.3575 67.1500 main 1068 1068 _________P____ -1 -24.3575 67.1500 TC 25 1 140
1922011S16061 1922 1 SI MM NOT_NAMED 1922-01-22 18:00:00 TS -24.4000 67.2000 main 1068 1068 _________O____ -1 -24.4000 67.2000 TC 25 2 127
1922011S16061 1922 1 SI MM NOT_NAMED 1922-01-22 21:00:00 TS -24.4500 67.2850 main 1077 1077 _________P____ -1 -24.4500 67.2850 TC 25 2 119
1922011S16061 1922 1 SI MM NOT_NAMED 1922-01-23 00:00:00 TS -24.5000 67.4000 main 1091 1091 _________O____ -1 -24.5000 67.4000 TC 25 3 111
1922011S16061 1922 1 SI MM NOT_NAMED 1922-01-23 03:00:00 TS -24.5425 67.5500 main 1110 1110 _________P____ -1 -24.5425 67.5500 TC 25 3 110
1922011S16061 1922 1 SI MM NOT_NAMED 1922-01-23 06:00:00 TS -24.6000 67.7000 main 1123 1123 _________O____ -1 -24.6000 67.7000 TC 25 3 124
1922011S16061 1922 1 SI MM NOT_NAMED 1922-01-23 09:00:00 TS -24.7000 67.8075 main 1137 1137 _________P____ -1 -24.7000 67.8075 TC 25 3 138
1922011S16061 1922 1 SI MM NOT_NAMED 1922-01-23 12:00:00 TS -24.8000 67.9000 main 1150 1150 _________O____ -1 -24.8000 67.9000 TC 25 2 130
1922011S16061 1922 1 SI MM NOT_NAMED 1922-01-23 15:00:00 TS -24.8500 68.0075 main 1164 1164 _________P____ -1 -24.8500 68.0075 TC 25 2 119
1922011S16061 1922 1 SI MM NOT_NAMED 1922-01-23 18:00:00 TS -24.9000 68.1000 main 1173 1173 _________O____ -1 -24.9000 68.1000 TC 25 2 135
1922011S16061 1922 1 SI MM NOT_NAMED 1922-01-23 21:00:00 TS -24.9875 68.1600 main 1187 1187 _________P____ -1 -24.9875 68.1600 TC 25 2 155
1922011S16061 1922 1 SI MM NOT_NAMED 1922-01-24 00:00:00 TS -25.1000 68.2000 main 1191 _________O____ -1 -25.1000 68.2000 TC 25 2 161

About IBTrACS Database

This database is a web-friendly format of International Best Track Archive for Climate Stewardship (IBTrACS), a global best track data archive curated by NOAA dating back to 1842.

Updated: 2021-10-19